sensor_id;sensor_type;location;lat;lon;timestamp;pressure;altitude;pressure_sealevel;temperature;humidity
42285;BME280;27942;47.510;18.966;2022-12-18T00:01:26;-15067.75;;;-4.26;100.00
42285;BME280;27942;47.510;18.966;2022-12-18T00:03:52;-15069.59;;;-4.20;100.00
42285;BME280;27942;47.510;18.966;2022-12-18T00:06:19;-15070.69;;;-4.16;100.00
42285;BME280;27942;47.510;18.966;2022-12-18T00:08:45;-15074.72;;;-4.03;100.00
42285;BME280;27942;47.510;18.966;2022-12-18T00:11:13;-15073.00;;;-4.08;100.00
42285;BME280;27942;47.510;18.966;2022-12-18T00:13:38;-15076.25;;;-3.98;100.00
42285;BME280;27942;47.510;18.966;2022-12-18T00:16:12;-15074.56;;;-4.03;100.00
42285;BME280;27942;47.510;18.966;2022-12-18T00:18:38;-15075.47;;;-4.00;100.00
42285;BME280;27942;47.510;18.966;2022-12-18T00:21:06;-15075.78;;;-3.99;100.00
42285;BME280;27942;47.510;18.966;2022-12-18T00:23:33;-15076.41;;;-3.97;100.00
42285;BME280;27942;47.510;18.966;2022-12-18T00:26:04;-15077.97;;;-3.92;100.00
42285;BME280;27942;47.510;18.966;2022-12-18T00:28:33;-15077.66;;;-3.93;100.00
42285;BME280;27942;47.510;18.966;2022-12-18T00:31:09;-15079.19;;;-3.88;100.00
42285;BME280;27942;47.510;18.966;2022-12-18T00:33:35;-15076.41;;;-3.97;100.00
42285;BME280;27942;47.510;18.966;2022-12-18T00:36:05;-15077.34;;;-3.94;100.00
42285;BME280;27942;47.510;18.966;2022-12-18T00:38:32;-15076.72;;;-3.96;100.00
42285;BME280;27942;47.510;18.966;2022-12-18T00:40:58;-15072.06;;;-4.12;100.00
42285;BME280;27942;47.510;18.966;2022-12-18T00:43:23;-15072.69;;;-4.09;100.00
42285;BME280;27942;47.510;18.966;2022-12-18T00:45:49;-15070.38;;;-4.17;100.00
42285;BME280;27942;47.510;18.966;2022-12-18T00:48:14;-15069.59;;;-4.20;100.00
42285;BME280;27942;47.510;18.966;2022-12-18T00:50:40;-15072.84;;;-4.09;100.00
42285;BME280;27942;47.510;18.966;2022-12-18T00:53:05;-15076.41;;;-3.97;100.00
42285;BME280;27942;47.510;18.966;2022-12-18T00:55:31;-15075.78;;;-3.99;100.00
42285;BME280;27942;47.510;18.966;2022-12-18T00:57:56;-15077.34;;;-3.94;100.00
42285;BME280;27942;47.510;18.966;2022-12-18T01:00:22;-15072.38;;;-4.11;100.00
42285;BME280;27942;47.510;18.966;2022-12-18T01:02:47;-15071.00;;;-4.15;100.00
42285;BME280;27942;47.510;18.966;2022-12-18T01:05:13;-15066.19;;;-4.31;100.00
42285;BME280;27942;47.510;18.966;2022-12-18T01:07:39;-15067.13;;;-4.28;100.00
42285;BME280;27942;47.510;18.966;2022-12-18T01:10:05;-15062.16;;;-4.44;100.00
42285;BME280;27942;47.510;18.966;2022-12-18T01:12:31;-15063.09;;;-4.41;100.00
42285;BME280;27942;47.510;18.966;2022-12-18T01:14:57;-15058.28;;;-4.57;100.00
42285;BME280;27942;47.510;18.966;2022-12-18T01:17:22;-15056.28;;;-4.64;100.00
42285;BME280;27942;47.510;18.966;2022-12-18T01:19:48;-15054.09;;;-4.71;100.00
42285;BME280;27942;47.510;18.966;2022-12-18T01:22:13;-15054.09;;;-4.71;100.00
42285;BME280;27942;47.510;18.966;2022-12-18T01:24:38;-15053.50;;;-4.73;100.00
42285;BME280;27942;47.510;18.966;2022-12-18T01:27:03;-15054.72;;;-4.69;100.00
42285;BME280;27942;47.510;18.966;2022-12-18T01:29:29;-15049.16;;;-4.87;100.00
42285;BME280;27942;47.510;18.966;2022-12-18T01:31:55;-15049.31;;;-4.86;100.00
42285;BME280;27942;47.510;18.966;2022-12-18T01:34:21;-15047.59;;;-4.92;100.00
42285;BME280;27942;47.510;18.966;2022-12-18T01:36:46;-15051.63;;;-4.79;100.00
42285;BME280;27942;47.510;18.966;2022-12-18T01:39:13;-15046.97;;;-4.94;100.00
42285;BME280;27942;47.510;18.966;2022-12-18T01:41:39;-15046.66;;;-4.95;100.00
42285;BME280;27942;47.510;18.966;2022-12-18T01:50:17;-15046.53;;;-4.96;100.00
42285;BME280;27942;47.510;18.966;2022-12-18T01:52:47;-15046.97;;;-4.94;100.00
42285;BME280;27942;47.510;18.966;2022-12-18T01:55:16;-15045.75;;;-4.98;100.00
42285;BME280;27942;47.510;18.966;2022-12-18T01:57:42;-15044.19;;;-5.03;100.00
42285;BME280;27942;47.510;18.966;2022-12-18T02:00:12;-15046.97;;;-4.94;100.00
42285;BME280;27942;47.510;18.966;2022-12-18T02:02:39;-15046.38;;;-4.96;100.00
42285;BME280;27942;47.510;18.966;2022-12-18T02:05:05;-15045.91;;;-4.98;100.00
42285;BME280;27942;47.510;18.966;2022-12-18T02:07:39;-15046.97;;;-4.94;100.00
42285;BME280;27942;47.510;18.966;2022-12-18T02:10:15;-15046.06;;;-4.97;100.00
42285;BME280;27942;47.510;18.966;2022-12-18T02:16:00;-15044.34;;;-5.03;100.00
42285;BME280;27942;47.510;18.966;2022-12-18T02:18:32;-15045.13;;;-5.00;100.00
42285;BME280;27942;47.510;18.966;2022-12-18T02:28:43;-15038.31;;;-5.23;100.00
42285;BME280;27942;47.510;18.966;2022-12-18T02:31:14;-15039.25;;;-5.20;100.00
42285;BME280;27942;47.510;18.966;2022-12-18T02:33:43;-15040.78;;;-5.15;100.00
42285;BME280;27942;47.510;18.966;2022-12-18T02:36:10;-15037.84;;;-5.24;100.00
42285;BME280;27942;47.510;18.966;2022-12-18T02:38:38;-15037.84;;;-5.24;100.00
42285;BME280;27942;47.510;18.966;2022-12-18T02:41:05;-15040.47;;;-5.16;100.00
42285;BME280;27942;47.510;18.966;2022-12-18T02:43:30;-15038.94;;;-5.21;100.00
42285;BME280;27942;47.510;18.966;2022-12-18T02:45:58;-15038.00;;;-5.24;100.00
42285;BME280;27942;47.510;18.966;2022-12-18T02:48:28;-15036.44;;;-5.29;100.00
42285;BME280;27942;47.510;18.966;2022-12-18T02:51:05;-15039.25;;;-5.20;100.00
42285;BME280;27942;47.510;18.966;2022-12-18T02:53:37;-15040.47;;;-5.16;100.00
42285;BME280;27942;47.510;18.966;2022-12-18T02:56:16;-15040.78;;;-5.15;100.00
42285;BME280;27942;47.510;18.966;2022-12-18T03:01:41;-15039.84;;;-5.18;100.00
42285;BME280;27942;47.510;18.966;2022-12-18T03:04:16;-15036.16;;;-5.30;100.00
42285;BME280;27942;47.510;18.966;2022-12-18T03:06:48;-15037.38;;;-5.26;100.00
42285;BME280;27942;47.510;18.966;2022-12-18T03:09:21;-15036.91;;;-5.27;100.00
42285;BME280;27942;47.510;18.966;2022-12-18T03:11:55;-15038.00;;;-5.24;100.00
42285;BME280;27942;47.510;18.966;2022-12-18T03:14:41;-15042.66;;;-5.08;100.00
42285;BME280;27942;47.510;18.966;2022-12-18T03:17:13;-15040.16;;;-5.17;100.00
42285;BME280;27942;47.510;18.966;2022-12-18T03:19:41;-15041.88;;;-5.11;100.00
42285;BME280;27942;47.510;18.966;2022-12-18T03:22:09;-15041.09;;;-5.14;100.00
42285;BME280;27942;47.510;18.966;2022-12-18T03:24:36;-15040.94;;;-5.14;100.00
42285;BME280;27942;47.510;18.966;2022-12-18T03:27:07;-15042.03;;;-5.10;100.00
42285;BME280;27942;47.510;18.966;2022-12-18T03:29:44;-15042.03;;;-5.10;100.00
42285;BME280;27942;47.510;18.966;2022-12-18T03:32:15;-15043.28;;;-5.06;100.00
42285;BME280;27942;47.510;18.966;2022-12-18T03:34:46;-15043.72;;;-5.05;100.00
42285;BME280;27942;47.510;18.966;2022-12-18T03:37:14;-15045.28;;;-5.00;100.00
42285;BME280;27942;47.510;18.966;2022-12-18T03:39:39;-15044.97;;;-5.01;100.00
42285;BME280;27942;47.510;18.966;2022-12-18T03:42:15;-15044.34;;;-5.03;100.00
42285;BME280;27942;47.510;18.966;2022-12-18T03:44:57;-15045.44;;;-4.99;100.00
42285;BME280;27942;47.510;18.966;2022-12-18T03:48:01;-15046.22;;;-4.97;100.00
42285;BME280;27942;47.510;18.966;2022-12-18T03:53:12;-15048.06;;;-4.91;100.00
42285;BME280;27942;47.510;18.966;2022-12-18T03:55:41;-15050.53;;;-4.82;100.00
42285;BME280;27942;47.510;18.966;2022-12-18T03:58:07;-15052.72;;;-4.75;100.00
42285;BME280;27942;47.510;18.966;2022-12-18T04:00:36;-15052.09;;;-4.77;100.00
42285;BME280;27942;47.510;18.966;2022-12-18T04:03:04;-15052.56;;;-4.76;100.00
42285;BME280;27942;47.510;18.966;2022-12-18T04:05:30;-15053.03;;;-4.74;100.00
42285;BME280;27942;47.510;18.966;2022-12-18T04:07:58;-15055.66;;;-4.66;100.00
42285;BME280;27942;47.510;18.966;2022-12-18T04:10:23;-15056.59;;;-4.63;100.00
42285;BME280;27942;47.510;18.966;2022-12-18T04:12:49;-15055.66;;;-4.66;100.00
42285;BME280;27942;47.510;18.966;2022-12-18T04:15:14;-15057.22;;;-4.60;100.00
42285;BME280;27942;47.510;18.966;2022-12-18T04:17:48;-15058.13;;;-4.57;100.00
42285;BME280;27942;47.510;18.966;2022-12-18T04:20:13;-15058.44;;;-4.56;100.00
42285;BME280;27942;47.510;18.966;2022-12-18T04:22:39;-15060.00;;;-4.51;100.00
42285;BME280;27942;47.510;18.966;2022-12-18T04:25:05;-15059.22;;;-4.54;100.00
42285;BME280;27942;47.510;18.966;2022-12-18T04:27:30;-15056.44;;;-4.63;100.00
42285;BME280;27942;47.510;18.966;2022-12-18T04:29:55;-15054.72;;;-4.69;100.00
42285;BME280;27942;47.510;18.966;2022-12-18T04:32:21;-15055.50;;;-4.66;100.00
42285;BME280;27942;47.510;18.966;2022-12-18T04:34:46;-15055.19;;;-4.67;100.00
42285;BME280;27942;47.510;18.966;2022-12-18T04:37:12;-15057.22;;;-4.60;100.00
42285;BME280;27942;47.510;18.966;2022-12-18T04:39:37;-15054.41;;;-4.70;100.00
42285;BME280;27942;47.510;18.966;2022-12-18T04:42:02;-15055.97;;;-4.65;100.00
42285;BME280;27942;47.510;18.966;2022-12-18T04:44:28;-15056.91;;;-4.62;100.00
42285;BME280;27942;47.510;18.966;2022-12-18T04:46:53;-15055.66;;;-4.66;100.00
42285;BME280;27942;47.510;18.966;2022-12-18T04:49:18;-15055.81;;;-4.65;100.00
42285;BME280;27942;47.510;18.966;2022-12-18T04:51:44;-15055.03;;;-4.68;100.00
42285;BME280;27942;47.510;18.966;2022-12-18T04:54:09;-15054.09;;;-4.71;100.00
42285;BME280;27942;47.510;18.966;2022-12-18T04:56:34;-15053.50;;;-4.73;100.00
42285;BME280;27942;47.510;18.966;2022-12-18T04:59:00;-15052.88;;;-4.75;100.00
42285;BME280;27942;47.510;18.966;2022-12-18T05:01:25;-15052.88;;;-4.75;100.00
42285;BME280;27942;47.510;18.966;2022-12-18T05:03:51;-15050.38;;;-4.83;100.00
42285;BME280;27942;47.510;18.966;2022-12-18T05:06:16;-15048.84;;;-4.88;100.00
42285;BME280;27942;47.510;18.966;2022-12-18T05:08:41;-15052.41;;;-4.76;100.00
42285;BME280;27942;47.510;18.966;2022-12-18T05:11:13;-15051.16;;;-4.80;100.00
42285;BME280;27942;47.510;18.966;2022-12-18T05:13:43;-15053.34;;;-4.73;100.00
42285;BME280;27942;47.510;18.966;2022-12-18T05:16:08;-15055.50;;;-4.66;100.00
42285;BME280;27942;47.510;18.966;2022-12-18T05:18:34;-15057.81;;;-4.58;100.00
42285;BME280;27942;47.510;18.966;2022-12-18T05:21:00;-15058.28;;;-4.57;100.00
42285;BME280;27942;47.510;18.966;2022-12-18T05:23:26;-15055.81;;;-4.65;100.00
42285;BME280;27942;47.510;18.966;2022-12-18T05:25:58;-15056.75;;;-4.62;100.00
42285;BME280;27942;47.510;18.966;2022-12-18T05:28:26;-15058.28;;;-4.57;100.00
42285;BME280;27942;47.510;18.966;2022-12-18T05:30:53;-15059.69;;;-4.52;100.00
42285;BME280;27942;47.510;18.966;2022-12-18T05:33:20;-15060.63;;;-4.49;100.00
42285;BME280;27942;47.510;18.966;2022-12-18T05:35:59;-15058.13;;;-4.57;100.00
42285;BME280;27942;47.510;18.966;2022-12-18T05:38:25;-15057.50;;;-4.59;100.00
42285;BME280;27942;47.510;18.966;2022-12-18T05:40:52;-15060.75;;;-4.49;100.00
42285;BME280;27942;47.510;18.966;2022-12-18T05:43:19;-15059.38;;;-4.53;100.00
42285;BME280;27942;47.510;18.966;2022-12-18T05:45:45;-15059.06;;;-4.54;100.00
42285;BME280;27942;47.510;18.966;2022-12-18T05:48:10;-15060.91;;;-4.48;100.00
42285;BME280;27942;47.510;18.966;2022-12-18T05:50:37;-15059.84;;;-4.52;100.00
42285;BME280;27942;47.510;18.966;2022-12-18T05:53:04;-15058.13;;;-4.57;100.00
42285;BME280;27942;47.510;18.966;2022-12-18T05:55:33;-15057.34;;;-4.60;100.00
42285;BME280;27942;47.510;18.966;2022-12-18T05:57:59;-15056.28;;;-4.64;100.00
42285;BME280;27942;47.510;18.966;2022-12-18T06:00:24;-15057.97;;;-4.58;100.00
42285;BME280;27942;47.510;18.966;2022-12-18T06:02:50;-15056.91;;;-4.62;100.00
42285;BME280;27942;47.510;18.966;2022-12-18T06:05:15;-15060.31;;;-4.50;100.00
42285;BME280;27942;47.510;18.966;2022-12-18T06:07:40;-15061.06;;;-4.48;100.00
42285;BME280;27942;47.510;18.966;2022-12-18T06:10:06;-15061.06;;;-4.48;100.00
42285;BME280;27942;47.510;18.966;2022-12-18T06:12:32;-15057.06;;;-4.61;100.00
42285;BME280;27942;47.510;18.966;2022-12-18T06:14:59;-15054.09;;;-4.71;100.00
42285;BME280;27942;47.510;18.966;2022-12-18T06:17:28;-15057.50;;;-4.59;100.00
42285;BME280;27942;47.510;18.966;2022-12-18T06:19:54;-15056.44;;;-4.63;100.00
42285;BME280;27942;47.510;18.966;2022-12-18T06:22:19;-15056.91;;;-4.62;100.00
42285;BME280;27942;47.510;18.966;2022-12-18T06:24:44;-15057.50;;;-4.59;100.00
42285;BME280;27942;47.510;18.966;2022-12-18T06:27:10;-15058.59;;;-4.56;100.00
42285;BME280;27942;47.510;18.966;2022-12-18T06:29:35;-15055.97;;;-4.65;100.00
42285;BME280;27942;47.510;18.966;2022-12-18T06:32:00;-15056.28;;;-4.64;100.00
42285;BME280;27942;47.510;18.966;2022-12-18T06:34:26;-15060.75;;;-4.49;100.00
42285;BME280;27942;47.510;18.966;2022-12-18T06:36:51;-15061.22;;;-4.47;100.00
42285;BME280;27942;47.510;18.966;2022-12-18T06:39:16;-15058.59;;;-4.56;100.00
42285;BME280;27942;47.510;18.966;2022-12-18T06:41:42;-15060.00;;;-4.51;100.00
42285;BME280;27942;47.510;18.966;2022-12-18T06:44:07;-15061.06;;;-4.48;100.00
42285;BME280;27942;47.510;18.966;2022-12-18T06:46:32;-15059.69;;;-4.52;100.00
42285;BME280;27942;47.510;18.966;2022-12-18T06:48:57;-15061.53;;;-4.46;100.00
42285;BME280;27942;47.510;18.966;2022-12-18T06:51:23;-15062.78;;;-4.42;100.00
42285;BME280;27942;47.510;18.966;2022-12-18T06:53:49;-15066.03;;;-4.31;100.00
42285;BME280;27942;47.510;18.966;2022-12-18T06:56:15;-15066.50;;;-4.30;100.00
42285;BME280;27942;47.510;18.966;2022-12-18T06:58:41;-15065.25;;;-4.34;100.00
42285;BME280;27942;47.510;18.966;2022-12-18T07:01:08;-15065.88;;;-4.32;100.00
42285;BME280;27942;47.510;18.966;2022-12-18T07:03:35;-15065.72;;;-4.32;100.00
42285;BME280;27942;47.510;18.966;2022-12-18T07:06:00;-15069.44;;;-4.20;100.00
42285;BME280;27942;47.510;18.966;2022-12-18T07:08:26;-15068.34;;;-4.24;100.00
42285;BME280;27942;47.510;18.966;2022-12-18T07:10:51;-15071.47;;;-4.14;100.00
42285;BME280;27942;47.510;18.966;2022-12-18T07:13:18;-15071.75;;;-4.13;100.00
42285;BME280;27942;47.510;18.966;2022-12-18T07:15:43;-15070.22;;;-4.18;100.00
42285;BME280;27942;47.510;18.966;2022-12-18T07:18:09;-15070.22;;;-4.18;100.00
42285;BME280;27942;47.510;18.966;2022-12-18T07:20:35;-15070.69;;;-4.16;100.00
42285;BME280;27942;47.510;18.966;2022-12-18T07:23:04;-15070.69;;;-4.16;100.00
42285;BME280;27942;47.510;18.966;2022-12-18T07:25:33;-15073.63;;;-4.06;100.00
42285;BME280;27942;47.510;18.966;2022-12-18T07:27:59;-15072.22;;;-4.11;100.00
42285;BME280;27942;47.510;18.966;2022-12-18T07:30:25;-15074.25;;;-4.04;100.00
42285;BME280;27942;47.510;18.966;2022-12-18T07:32:50;-15077.97;;;-3.92;100.00
42285;BME280;27942;47.510;18.966;2022-12-18T07:35:15;-15078.59;;;-3.90;100.00
42285;BME280;27942;47.510;18.966;2022-12-18T07:37:41;-15080.59;;;-3.83;100.00
42285;BME280;27942;47.510;18.966;2022-12-18T07:40:06;-15081.84;;;-3.79;100.00
42285;BME280;27942;47.510;18.966;2022-12-18T07:42:32;-15082.75;;;-3.76;100.00
42285;BME280;27942;47.510;18.966;2022-12-18T07:45:01;-15083.53;;;-3.74;100.00
42285;BME280;27942;47.510;18.966;2022-12-18T07:47:27;-15086.78;;;-3.63;100.00
42285;BME280;27942;47.510;18.966;2022-12-18T07:49:54;-15087.41;;;-3.61;100.00
42285;BME280;27942;47.510;18.966;2022-12-18T07:52:19;-15088.97;;;-3.56;100.00
42285;BME280;27942;47.510;18.966;2022-12-18T07:54:45;-15088.03;;;-3.59;100.00
42285;BME280;27942;47.510;18.966;2022-12-18T07:57:10;-15087.56;;;-3.61;100.00
42285;BME280;27942;47.510;18.966;2022-12-18T07:59:36;-15088.97;;;-3.56;100.00
42285;BME280;27942;47.510;18.966;2022-12-18T08:02:02;-15091.91;;;-3.46;100.00
42285;BME280;27942;47.510;18.966;2022-12-18T08:04:28;-15090.50;;;-3.51;100.00
42285;BME280;27942;47.510;18.966;2022-12-18T08:06:53;-15090.03;;;-3.52;100.00
42285;BME280;27942;47.510;18.966;2022-12-18T08:09:18;-15091.28;;;-3.48;100.00
42285;BME280;27942;47.510;18.966;2022-12-18T08:11:44;-15093.28;;;-3.42;100.00
42285;BME280;27942;47.510;18.966;2022-12-18T08:14:10;-15096.53;;;-3.31;100.00
42285;BME280;27942;47.510;18.966;2022-12-18T08:16:35;-15113.91;;;-2.74;100.00
42285;BME280;27942;47.510;18.966;2022-12-18T08:19:01;-15119.78;;;-2.54;100.00
42285;BME280;27942;47.510;18.966;2022-12-18T08:21:29;-15119.63;;;-2.55;100.00
42285;BME280;27942;47.510;18.966;2022-12-18T08:23:57;-15119.31;;;-2.56;100.00
42285;BME280;27942;47.510;18.966;2022-12-18T08:26:23;-15117.63;;;-2.62;100.00
42285;BME280;27942;47.510;18.966;2022-12-18T08:28:49;-15120.56;;;-2.52;100.00
42285;BME280;27942;47.510;18.966;2022-12-18T08:31:15;-15116.06;;;-2.67;100.00
42285;BME280;27942;47.510;18.966;2022-12-18T08:33:41;-15119.31;;;-2.56;100.00
42285;BME280;27942;47.510;18.966;2022-12-18T08:36:08;-15120.09;;;-2.53;100.00
42285;BME280;27942;47.510;18.966;2022-12-18T08:38:34;-15118.84;;;-2.58;100.00
42285;BME280;27942;47.510;18.966;2022-12-18T08:41:01;-15121.97;;;-2.47;100.00
42285;BME280;27942;47.510;18.966;2022-12-18T08:43:26;-15121.34;;;-2.49;100.00
42285;BME280;27942;47.510;18.966;2022-12-18T08:46:11;-15125.06;;;-2.37;100.00
42285;BME280;27942;47.510;18.966;2022-12-18T08:48:36;-15133.13;;;-2.11;100.00
42285;BME280;27942;47.510;18.966;2022-12-18T08:51:02;-15138.06;;;-1.94;100.00
42285;BME280;27942;47.510;18.966;2022-12-18T08:53:27;-15140.84;;;-1.85;100.00
42285;BME280;27942;47.510;18.966;2022-12-18T08:55:53;-15138.06;;;-1.94;100.00
42285;BME280;27942;47.510;18.966;2022-12-18T08:58:19;-15140.09;;;-1.88;100.00
42285;BME280;27942;47.510;18.966;2022-12-18T09:00:44;-15137.91;;;-1.95;100.00
42285;BME280;27942;47.510;18.966;2022-12-18T09:03:17;-15138.22;;;-1.94;100.00
42285;BME280;27942;47.510;18.966;2022-12-18T09:05:43;-15136.81;;;-1.98;100.00
42285;BME280;27942;47.510;18.966;2022-12-18T09:08:10;-15135.59;;;-2.02;100.00
42285;BME280;27942;47.510;18.966;2022-12-18T09:10:44;-15135.44;;;-2.03;100.00
42285;BME280;27942;47.510;18.966;2022-12-18T09:13:12;-15130.47;;;-2.19;100.00
42285;BME280;27942;47.510;18.966;2022-12-18T09:15:46;-15132.81;;;-2.12;100.00
42285;BME280;27942;47.510;18.966;2022-12-18T09:18:13;-15131.88;;;-2.15;100.00
42285;BME280;27942;47.510;18.966;2022-12-18T09:20:38;-15134.03;;;-2.08;100.00
42285;BME280;27942;47.510;18.966;2022-12-18T09:23:04;-15135.13;;;-2.04;100.00
42285;BME280;27942;47.510;18.966;2022-12-18T09:25:30;-15135.59;;;-2.02;100.00
42285;BME280;27942;47.510;18.966;2022-12-18T09:28:04;-15135.13;;;-2.04;100.00
42285;BME280;27942;47.510;18.966;2022-12-18T09:30:30;-15136.53;;;-1.99;100.00
42285;BME280;27942;47.510;18.966;2022-12-18T09:32:58;-15140.25;;;-1.87;100.00
42285;BME280;27942;47.510;18.966;2022-12-18T09:35:23;-15146.13;;;-1.68;100.00
42285;BME280;27942;47.510;18.966;2022-12-18T09:37:49;-15149.69;;;-1.56;100.00
42285;BME280;27942;47.510;18.966;2022-12-18T09:40:16;-15151.09;;;-1.51;100.00
42285;BME280;27942;47.510;18.966;2022-12-18T09:42:44;-15151.72;;;-1.49;100.00
42285;BME280;27942;47.510;18.966;2022-12-18T09:45:14;-15145.50;;;-1.70;100.00
42285;BME280;27942;47.510;18.966;2022-12-18T09:47:42;-15148.44;;;-1.60;100.00
42285;BME280;27942;47.510;18.966;2022-12-18T09:52:51;-15145.50;;;-1.70;100.00
42285;BME280;27942;47.510;18.966;2022-12-18T09:55:37;-15148.44;;;-1.60;100.00
42285;BME280;27942;47.510;18.966;2022-12-18T09:58:15;-15148.59;;;-1.60;100.00
42285;BME280;27942;47.510;18.966;2022-12-18T10:00:42;-15153.25;;;-1.44;100.00
42285;BME280;27942;47.510;18.966;2022-12-18T10:03:12;-15154.81;;;-1.39;100.00
42285;BME280;27942;47.510;18.966;2022-12-18T10:13:12;-15159.59;;;-1.23;100.00
42285;BME280;27942;47.510;18.966;2022-12-18T10:16:16;-15160.69;;;-1.20;100.00
42285;BME280;27942;47.510;18.966;2022-12-18T10:21:32;-15160.38;;;-1.21;100.00
42285;BME280;27942;47.510;18.966;2022-12-18T10:26:38;-15164.09;;;-1.09;100.00
42285;BME280;27942;47.510;18.966;2022-12-18T10:29:10;-15171.06;;;-0.86;100.00
42285;BME280;27942;47.510;18.966;2022-12-18T10:31:37;-15170.63;;;-0.87;100.00
42285;BME280;27942;47.510;18.966;2022-12-18T10:34:02;-15168.13;;;-0.95;100.00
42285;BME280;27942;47.510;18.966;2022-12-18T10:36:27;-15168.28;;;-0.95;100.00
42285;BME280;27942;47.510;18.966;2022-12-18T10:38:53;-15171.53;;;-0.84;100.00
42285;BME280;27942;47.510;18.966;2022-12-18T10:43:46;-15183.31;;;-0.45;100.00
42285;BME280;27942;47.510;18.966;2022-12-18T10:51:25;-15179.44;;;-0.58;100.00
42285;BME280;27942;47.510;18.966;2022-12-18T10:53:57;-15179.59;;;-0.58;100.00
42285;BME280;27942;47.510;18.966;2022-12-18T10:56:26;-15178.66;;;-0.61;100.00
42285;BME280;27942;47.510;18.966;2022-12-18T10:59:00;-15180.84;;;-0.54;100.00
42285;BME280;27942;47.510;18.966;2022-12-18T11:01:27;-15179.28;;;-0.59;100.00
42285;BME280;27942;47.510;18.966;2022-12-18T11:06:21;-15182.22;;;-0.49;100.00
42285;BME280;27942;47.510;18.966;2022-12-18T11:09:01;-15185.19;;;-0.39;100.00
42285;BME280;27942;47.510;18.966;2022-12-18T11:11:28;-15184.88;;;-0.40;100.00
42285;BME280;27942;47.510;18.966;2022-12-18T11:14:03;-15189.22;;;-0.26;100.00
42285;BME280;27942;47.510;18.966;2022-12-18T11:16:33;-15189.53;;;-0.25;100.00
42285;BME280;27942;47.510;18.966;2022-12-18T11:19:17;-15189.38;;;-0.26;100.00
42285;BME280;27942;47.510;18.966;2022-12-18T11:21:45;-15189.53;;;-0.25;100.00
42285;BME280;27942;47.510;18.966;2022-12-18T11:26:56;-15189.22;;;-0.26;100.00
42285;BME280;27942;47.510;18.966;2022-12-18T11:29:36;-15189.66;;;-0.24;100.00
42285;BME280;27942;47.510;18.966;2022-12-18T11:38:04;-15217.09;;;0.66;100.00
42285;BME280;27942;47.510;18.966;2022-12-18T11:40:35;-15208.91;;;0.39;100.00
42285;BME280;27942;47.510;18.966;2022-12-18T11:43:10;-15209.66;;;0.41;100.00
42285;BME280;27942;47.510;18.966;2022-12-18T11:45:48;-15209.66;;;0.41;100.00
42285;BME280;27942;47.510;18.966;2022-12-18T11:48:18;-15218.34;;;0.70;100.00
42285;BME280;27942;47.510;18.966;2022-12-18T11:50:54;-15218.03;;;0.69;100.00
42285;BME280;27942;47.510;18.966;2022-12-18T11:53:21;-15210.13;;;0.43;100.00
42285;BME280;27942;47.510;18.966;2022-12-18T12:01:54;-15199.28;;;0.07;100.00
42285;BME280;27942;47.510;18.966;2022-12-18T12:04:28;-15199.91;;;0.09;100.00
42285;BME280;27942;47.510;18.966;2022-12-18T12:17:36;-15202.22;;;0.17;100.00
42285;BME280;27942;47.510;18.966;2022-12-18T12:20:07;-15200.22;;;0.10;100.00
42285;BME280;27942;47.510;18.966;2022-12-18T12:25:41;-15195.72;;;-0.05;100.00
42285;BME280;27942;47.510;18.966;2022-12-18T12:36:19;-15197.88;;;0.03;100.00
42285;BME280;27942;47.510;18.966;2022-12-18T12:38:54;-15191.84;;;-0.17;100.00
42285;BME280;27942;47.510;18.966;2022-12-18T12:41:27;-15185.34;;;-0.39;100.00
42285;BME280;27942;47.510;18.966;2022-12-18T12:44:18;-15181.63;;;-0.51;100.00
42285;BME280;27942;47.510;18.966;2022-12-18T12:46:44;-15177.75;;;-0.64;100.00
42285;BME280;27942;47.510;18.966;2022-12-18T12:49:15;-15174.94;;;-0.73;100.00
42285;BME280;27942;47.510;18.966;2022-12-18T12:51:44;-15168.75;;;-0.93;100.00
42285;BME280;27942;47.510;18.966;2022-12-18T12:54:31;-15167.03;;;-0.99;100.00
42285;BME280;27942;47.510;18.966;2022-12-18T12:57:00;-15162.88;;;-1.13;100.00
42285;BME280;27942;47.510;18.966;2022-12-18T13:04:58;-15155.28;;;-1.38;100.00
42285;BME280;27942;47.510;18.966;2022-12-18T13:07:39;-15151.25;;;-1.51;100.00
42285;BME280;27942;47.510;18.966;2022-12-18T13:20:45;-15143.97;;;-1.75;100.00
42285;BME280;27942;47.510;18.966;2022-12-18T13:25:56;-15143.50;;;-1.76;100.00
42285;BME280;27942;47.510;18.966;2022-12-18T13:31:06;-15141.78;;;-1.82;100.00
42285;BME280;27942;47.510;18.966;2022-12-18T13:38:43;-15139.63;;;-1.89;100.00
42285;BME280;27942;47.510;18.966;2022-12-18T13:46:29;-15136.06;;;-2.01;100.00
42285;BME280;27942;47.510;18.966;2022-12-18T13:51:26;-15133.72;;;-2.09;100.00
42285;BME280;27942;47.510;18.966;2022-12-18T13:53:59;-15135.44;;;-2.03;100.00
42285;BME280;27942;47.510;18.966;2022-12-18T13:56:28;-15135.59;;;-2.02;100.00
42285;BME280;27942;47.510;18.966;2022-12-18T14:01:50;-15134.66;;;-2.06;100.00
42285;BME280;27942;47.510;18.966;2022-12-18T14:04:28;-15133.72;;;-2.09;100.00
42285;BME280;27942;47.510;18.966;2022-12-18T14:09:42;-15131.56;;;-2.16;100.00
42285;BME280;27942;47.510;18.966;2022-12-18T14:12:50;-15131.72;;;-2.15;100.00
42285;BME280;27942;47.510;18.966;2022-12-18T14:15:40;-15129.53;;;-2.22;100.00
42285;BME280;27942;47.510;18.966;2022-12-18T14:18:19;-15129.84;;;-2.21;100.00
42285;BME280;27942;47.510;18.966;2022-12-18T14:20:47;-15127.84;;;-2.28;100.00
42285;BME280;27942;47.510;18.966;2022-12-18T14:23:35;-15127.06;;;-2.30;100.00
42285;BME280;27942;47.510;18.966;2022-12-18T14:26:03;-15127.53;;;-2.29;100.00
42285;BME280;27942;47.510;18.966;2022-12-18T14:28:44;-15125.97;;;-2.34;100.00
42285;BME280;27942;47.510;18.966;2022-12-18T14:31:20;-15127.53;;;-2.29;100.00
42285;BME280;27942;47.510;18.966;2022-12-18T14:33:46;-15125.38;;;-2.36;100.00
42285;BME280;27942;47.510;18.966;2022-12-18T14:36:15;-15123.19;;;-2.43;100.00
42285;BME280;27942;47.510;18.966;2022-12-18T14:38:42;-15119.94;;;-2.54;100.00
42285;BME280;27942;47.510;18.966;2022-12-18T14:41:13;-15118.84;;;-2.58;100.00
42285;BME280;27942;47.510;18.966;2022-12-18T14:43:40;-15120.41;;;-2.52;100.00